Skip Navigation LinksHome page > Weather > Current weather Skip Navigation Links

Current Weather

Kansas City Downtown, Kansas City, Mo.

For information only: do not use for flight planning or navigation.
Latest weather
Observation time Sunday, September 20, 2020 7:54 AM CDT
Local time Sunday, September 20, 2020 8:21 AM CDT
Flight conditions Visual Meteorological Conditions
Winds
Wind direction East (100°)
Wind speed 6 mph
Visibility 10 mi.
Sky condition
Ceiling unlimited
Sky clear
Temperature 56°F
Dewpoint 47°F
Altimeter 30.27 in.Hg
Derived measurements
Relative humidity 72%
Density altitude 316 ft.
Sea-level pressure 30.26 in.Hg
Remarks
Automated weather observing station with precipitation discriminator.
METAR KMKC 201254Z 10005KT 10SM CLR 13/08 A3027 RMK AO2 SLP247 T01330083

Settings

Location code

InnerDrive.Weather 4.0.6770.0 Release CLR 4.0.30319.42000
Copyright ©2018 Inner Drive Technology. All rights reserved. Portions Copyright ©1986-2018 David Braverman.

Find weather

Site navigation


Skip Navigation Links

Place info

Page info

PayPal - The safer, easier way to pay online!

Return home.

Copyright ©2020 Inner Drive Technology. Purveyors of fine, hand-crafted computer software. Page printed 2020-09-20T13:21:19 UTC.